sensor_id;sensor_type;location;lat;lon;timestamp;temperature;humidity
23156;DHT22;11746;50.876;4.246;2022-12-07T00:01:40;5.20;99.90
23156;DHT22;11746;50.876;4.246;2022-12-07T00:04:07;5.20;99.90
23156;DHT22;11746;50.876;4.246;2022-12-07T00:06:36;5.10;99.90
23156;DHT22;11746;50.876;4.246;2022-12-07T00:09:03;5.10;99.90
23156;DHT22;11746;50.876;4.246;2022-12-07T00:11:29;5.10;99.90
23156;DHT22;11746;50.876;4.246;2022-12-07T00:13:57;5.00;99.90
23156;DHT22;11746;50.876;4.246;2022-12-07T00:16:25;5.00;99.90
23156;DHT22;11746;50.876;4.246;2022-12-07T00:18:51;5.00;99.90
23156;DHT22;11746;50.876;4.246;2022-12-07T00:21:21;5.00;99.90
23156;DHT22;11746;50.876;4.246;2022-12-07T00:23:48;5.10;99.90
23156;DHT22;11746;50.876;4.246;2022-12-07T00:26:23;5.10;99.90
23156;DHT22;11746;50.876;4.246;2022-12-07T00:28:51;5.20;99.90
23156;DHT22;11746;50.876;4.246;2022-12-07T00:31:19;5.10;99.90
23156;DHT22;11746;50.876;4.246;2022-12-07T00:33:46;5.00;99.90
23156;DHT22;11746;50.876;4.246;2022-12-07T00:36:15;5.10;99.90
23156;DHT22;11746;50.876;4.246;2022-12-07T00:38:44;5.00;99.90
23156;DHT22;11746;50.876;4.246;2022-12-07T00:41:16;5.00;99.90
23156;DHT22;11746;50.876;4.246;2022-12-07T00:43:47;4.90;99.90
23156;DHT22;11746;50.876;4.246;2022-12-07T00:46:15;4.80;99.90
23156;DHT22;11746;50.876;4.246;2022-12-07T00:48:42;4.80;99.90
23156;DHT22;11746;50.876;4.246;2022-12-07T00:51:09;4.90;99.90
23156;DHT22;11746;50.876;4.246;2022-12-07T00:53:37;4.90;99.90
23156;DHT22;11746;50.876;4.246;2022-12-07T00:56:11;4.90;99.90
23156;DHT22;11746;50.876;4.246;2022-12-07T00:58:38;4.70;99.90
23156;DHT22;11746;50.876;4.246;2022-12-07T01:01:06;4.70;99.90
23156;DHT22;11746;50.876;4.246;2022-12-07T01:03:32;4.60;99.90
23156;DHT22;11746;50.876;4.246;2022-12-07T01:05:58;4.60;99.90
23156;DHT22;11746;50.876;4.246;2022-12-07T01:08:25;4.60;99.90
23156;DHT22;11746;50.876;4.246;2022-12-07T01:11:05;4.60;99.90
23156;DHT22;11746;50.876;4.246;2022-12-07T01:13:36;4.70;99.90
23156;DHT22;11746;50.876;4.246;2022-12-07T01:16:06;4.60;99.90
23156;DHT22;11746;50.876;4.246;2022-12-07T01:18:35;4.50;99.90
23156;DHT22;11746;50.876;4.246;2022-12-07T01:21:11;4.50;99.90
23156;DHT22;11746;50.876;4.246;2022-12-07T01:23:42;4.50;99.90
23156;DHT22;11746;50.876;4.246;2022-12-07T01:26:12;4.50;99.90
23156;DHT22;11746;50.876;4.246;2022-12-07T01:28:38;4.50;99.90
23156;DHT22;11746;50.876;4.246;2022-12-07T01:31:09;4.60;99.90
23156;DHT22;11746;50.876;4.246;2022-12-07T01:33:37;4.70;99.90
23156;DHT22;11746;50.876;4.246;2022-12-07T01:36:12;4.60;99.90
23156;DHT22;11746;50.876;4.246;2022-12-07T01:38:41;4.50;99.90
23156;DHT22;11746;50.876;4.246;2022-12-07T01:41:07;4.40;99.90
23156;DHT22;11746;50.876;4.246;2022-12-07T01:43:35;4.50;99.90
23156;DHT22;11746;50.876;4.246;2022-12-07T01:46:03;4.40;99.90
23156;DHT22;11746;50.876;4.246;2022-12-07T01:48:40;4.40;99.90
23156;DHT22;11746;50.876;4.246;2022-12-07T01:51:11;4.40;99.90
23156;DHT22;11746;50.876;4.246;2022-12-07T01:53:42;4.40;99.90
23156;DHT22;11746;50.876;4.246;2022-12-07T01:56:14;4.60;99.90
23156;DHT22;11746;50.876;4.246;2022-12-07T01:58:41;4.70;99.90
23156;DHT22;11746;50.876;4.246;2022-12-07T02:01:07;4.70;99.90
23156;DHT22;11746;50.876;4.246;2022-12-07T02:03:44;4.60;99.90
23156;DHT22;11746;50.876;4.246;2022-12-07T02:06:12;4.80;99.90
23156;DHT22;11746;50.876;4.246;2022-12-07T02:08:42;4.90;99.90
23156;DHT22;11746;50.876;4.246;2022-12-07T02:11:08;4.90;99.90
23156;DHT22;11746;50.876;4.246;2022-12-07T02:13:36;4.90;99.90
23156;DHT22;11746;50.876;4.246;2022-12-07T02:16:25;4.80;99.90
23156;DHT22;11746;50.876;4.246;2022-12-07T02:21:40;4.80;99.90
23156;DHT22;11746;50.876;4.246;2022-12-07T02:32:28;4.80;99.90
23156;DHT22;11746;50.876;4.246;2022-12-07T02:35:15;4.80;99.90
23156;DHT22;11746;50.876;4.246;2022-12-07T02:42:47;4.80;99.90
23156;DHT22;11746;50.876;4.246;2022-12-07T02:45:17;4.60;99.90
23156;DHT22;11746;50.876;4.246;2022-12-07T02:47:46;4.50;99.90
23156;DHT22;11746;50.876;4.246;2022-12-07T02:50:18;4.50;99.90
23156;DHT22;11746;50.876;4.246;2022-12-07T02:52:45;4.50;99.90
23156;DHT22;11746;50.876;4.246;2022-12-07T02:55:15;4.60;99.90
23156;DHT22;11746;50.876;4.246;2022-12-07T03:00:44;4.50;99.90
23156;DHT22;11746;50.876;4.246;2022-12-07T03:03:14;4.50;99.90
23156;DHT22;11746;50.876;4.246;2022-12-07T03:11:00;4.40;99.90
23156;DHT22;11746;50.876;4.246;2022-12-07T03:13:36;4.40;99.90
23156;DHT22;11746;50.876;4.246;2022-12-07T03:16:14;4.40;99.90
23156;DHT22;11746;50.876;4.246;2022-12-07T03:19:11;4.40;99.90
23156;DHT22;11746;50.876;4.246;2022-12-07T03:21:45;4.40;99.90
23156;DHT22;11746;50.876;4.246;2022-12-07T03:24:21;4.40;99.90
23156;DHT22;11746;50.876;4.246;2022-12-07T03:27:01;4.40;99.90
23156;DHT22;11746;50.876;4.246;2022-12-07T03:29:53;4.40;99.90
23156;DHT22;11746;50.876;4.246;2022-12-07T03:32:23;4.30;99.90
23156;DHT22;11746;50.876;4.246;2022-12-07T03:34:58;4.30;99.90
23156;DHT22;11746;50.876;4.246;2022-12-07T03:37:40;4.30;99.90
23156;DHT22;11746;50.876;4.246;2022-12-07T03:42:52;4.40;99.90
23156;DHT22;11746;50.876;4.246;2022-12-07T03:45:22;4.50;99.90
23156;DHT22;11746;50.876;4.246;2022-12-07T03:53:34;4.60;99.90
23156;DHT22;11746;50.876;4.246;2022-12-07T03:56:04;4.50;99.90
23156;DHT22;11746;50.876;4.246;2022-12-07T03:58:32;4.40;99.90
23156;DHT22;11746;50.876;4.246;2022-12-07T04:00:59;4.40;99.90
23156;DHT22;11746;50.876;4.246;2022-12-07T04:03:27;4.30;99.90
23156;DHT22;11746;50.876;4.246;2022-12-07T04:05:56;4.30;99.90
23156;DHT22;11746;50.876;4.246;2022-12-07T04:08:23;4.30;99.90
23156;DHT22;11746;50.876;4.246;2022-12-07T04:10:52;4.20;99.90
23156;DHT22;11746;50.876;4.246;2022-12-07T04:13:18;4.10;99.90
23156;DHT22;11746;50.876;4.246;2022-12-07T04:15:44;4.20;99.90
23156;DHT22;11746;50.876;4.246;2022-12-07T04:18:10;4.20;99.90
23156;DHT22;11746;50.876;4.246;2022-12-07T04:20:36;4.20;99.90
23156;DHT22;11746;50.876;4.246;2022-12-07T04:23:04;4.20;99.90
23156;DHT22;11746;50.876;4.246;2022-12-07T04:25:32;4.10;99.90
23156;DHT22;11746;50.876;4.246;2022-12-07T04:27:57;4.20;99.90
23156;DHT22;11746;50.876;4.246;2022-12-07T04:30:26;4.10;99.90
23156;DHT22;11746;50.876;4.246;2022-12-07T04:32:52;4.10;99.90
23156;DHT22;11746;50.876;4.246;2022-12-07T04:35:18;4.20;99.90
23156;DHT22;11746;50.876;4.246;2022-12-07T04:37:46;4.30;99.90
23156;DHT22;11746;50.876;4.246;2022-12-07T04:40:12;4.30;99.90
23156;DHT22;11746;50.876;4.246;2022-12-07T04:42:39;4.30;99.90
23156;DHT22;11746;50.876;4.246;2022-12-07T04:45:05;4.40;99.90
23156;DHT22;11746;50.876;4.246;2022-12-07T04:47:31;4.40;99.90
23156;DHT22;11746;50.876;4.246;2022-12-07T04:49:57;4.50;99.90
23156;DHT22;11746;50.876;4.246;2022-12-07T04:52:25;4.60;99.90
23156;DHT22;11746;50.876;4.246;2022-12-07T04:54:51;4.60;99.90
23156;DHT22;11746;50.876;4.246;2022-12-07T04:57:16;4.60;99.90
23156;DHT22;11746;50.876;4.246;2022-12-07T04:59:42;4.50;99.90
23156;DHT22;11746;50.876;4.246;2022-12-07T05:02:08;4.40;99.90
23156;DHT22;11746;50.876;4.246;2022-12-07T05:04:36;4.30;99.90
23156;DHT22;11746;50.876;4.246;2022-12-07T05:07:02;4.20;99.90
23156;DHT22;11746;50.876;4.246;2022-12-07T05:09:27;4.20;99.90
23156;DHT22;11746;50.876;4.246;2022-12-07T05:11:53;4.20;99.90
23156;DHT22;11746;50.876;4.246;2022-12-07T05:14:21;4.20;99.90
23156;DHT22;11746;50.876;4.246;2022-12-07T05:16:49;4.10;99.90
23156;DHT22;11746;50.876;4.246;2022-12-07T05:19:18;4.10;99.90
23156;DHT22;11746;50.876;4.246;2022-12-07T05:21:48;4.10;99.90
23156;DHT22;11746;50.876;4.246;2022-12-07T05:24:16;4.10;99.90
23156;DHT22;11746;50.876;4.246;2022-12-07T05:26:42;4.00;99.90
23156;DHT22;11746;50.876;4.246;2022-12-07T05:29:13;4.00;99.90
23156;DHT22;11746;50.876;4.246;2022-12-07T05:31:39;4.00;99.90
23156;DHT22;11746;50.876;4.246;2022-12-07T05:34:05;4.00;99.90
23156;DHT22;11746;50.876;4.246;2022-12-07T05:36:31;4.00;99.90
23156;DHT22;11746;50.876;4.246;2022-12-07T05:38:59;4.00;99.90
23156;DHT22;11746;50.876;4.246;2022-12-07T05:41:25;4.00;99.90
23156;DHT22;11746;50.876;4.246;2022-12-07T05:44:09;4.00;99.90
23156;DHT22;11746;50.876;4.246;2022-12-07T05:46:36;4.00;99.90
23156;DHT22;11746;50.876;4.246;2022-12-07T05:49:04;4.00;99.90
23156;DHT22;11746;50.876;4.246;2022-12-07T05:51:30;3.90;99.90
23156;DHT22;11746;50.876;4.246;2022-12-07T05:53:56;3.90;99.90
23156;DHT22;11746;50.876;4.246;2022-12-07T05:56:21;3.90;99.90
23156;DHT22;11746;50.876;4.246;2022-12-07T05:58:50;4.00;99.90
23156;DHT22;11746;50.876;4.246;2022-12-07T06:01:36;4.00;99.90
23156;DHT22;11746;50.876;4.246;2022-12-07T06:04:03;3.90;99.90
23156;DHT22;11746;50.876;4.246;2022-12-07T06:06:29;3.80;99.90
23156;DHT22;11746;50.876;4.246;2022-12-07T06:08:55;3.80;99.90
23156;DHT22;11746;50.876;4.246;2022-12-07T06:11:21;3.80;99.90
23156;DHT22;11746;50.876;4.246;2022-12-07T06:14:05;3.80;99.90
23156;DHT22;11746;50.876;4.246;2022-12-07T06:16:30;3.80;99.90
23156;DHT22;11746;50.876;4.246;2022-12-07T06:18:56;3.80;99.90
23156;DHT22;11746;50.876;4.246;2022-12-07T06:21:25;3.80;99.90
23156;DHT22;11746;50.876;4.246;2022-12-07T06:23:52;4.00;99.90
23156;DHT22;11746;50.876;4.246;2022-12-07T06:26:17;4.00;99.90
23156;DHT22;11746;50.876;4.246;2022-12-07T06:28:43;4.10;99.90
23156;DHT22;11746;50.876;4.246;2022-12-07T06:31:09;4.10;99.90
23156;DHT22;11746;50.876;4.246;2022-12-07T06:33:37;4.00;99.90
23156;DHT22;11746;50.876;4.246;2022-12-07T06:36:03;4.10;99.90
23156;DHT22;11746;50.876;4.246;2022-12-07T06:38:29;4.10;99.90
23156;DHT22;11746;50.876;4.246;2022-12-07T06:40:55;4.10;99.90
23156;DHT22;11746;50.876;4.246;2022-12-07T06:43:21;4.20;99.90
23156;DHT22;11746;50.876;4.246;2022-12-07T06:45:47;4.20;99.90
23156;DHT22;11746;50.876;4.246;2022-12-07T06:48:14;4.10;99.90
23156;DHT22;11746;50.876;4.246;2022-12-07T06:50:40;4.10;99.90
23156;DHT22;11746;50.876;4.246;2022-12-07T06:53:05;4.20;99.90
23156;DHT22;11746;50.876;4.246;2022-12-07T06:55:31;4.30;99.90
23156;DHT22;11746;50.876;4.246;2022-12-07T06:58:00;4.30;99.90
23156;DHT22;11746;50.876;4.246;2022-12-07T07:00:29;4.30;99.90
23156;DHT22;11746;50.876;4.246;2022-12-07T07:02:55;4.30;99.90
23156;DHT22;11746;50.876;4.246;2022-12-07T07:05:20;4.30;99.90
23156;DHT22;11746;50.876;4.246;2022-12-07T07:07:50;4.50;99.90
23156;DHT22;11746;50.876;4.246;2022-12-07T07:10:16;4.40;99.90
23156;DHT22;11746;50.876;4.246;2022-12-07T07:12:42;4.40;99.90
23156;DHT22;11746;50.876;4.246;2022-12-07T07:15:07;4.50;99.90
23156;DHT22;11746;50.876;4.246;2022-12-07T07:17:33;4.50;99.90
23156;DHT22;11746;50.876;4.246;2022-12-07T07:19:59;4.50;99.90
23156;DHT22;11746;50.876;4.246;2022-12-07T07:22:27;4.50;99.90
23156;DHT22;11746;50.876;4.246;2022-12-07T07:24:55;4.30;99.90
23156;DHT22;11746;50.876;4.246;2022-12-07T07:27:21;4.40;99.90
23156;DHT22;11746;50.876;4.246;2022-12-07T07:29:51;4.40;99.90
23156;DHT22;11746;50.876;4.246;2022-12-07T07:32:18;4.40;99.90
23156;DHT22;11746;50.876;4.246;2022-12-07T07:34:46;4.30;99.90
23156;DHT22;11746;50.876;4.246;2022-12-07T07:37:11;4.40;99.90
23156;DHT22;11746;50.876;4.246;2022-12-07T07:39:40;4.40;99.90
23156;DHT22;11746;50.876;4.246;2022-12-07T07:42:06;4.50;99.90
23156;DHT22;11746;50.876;4.246;2022-12-07T07:44:36;4.50;99.90
23156;DHT22;11746;50.876;4.246;2022-12-07T07:47:04;4.50;99.90
23156;DHT22;11746;50.876;4.246;2022-12-07T07:49:30;4.60;99.90
23156;DHT22;11746;50.876;4.246;2022-12-07T07:51:56;4.60;99.90
23156;DHT22;11746;50.876;4.246;2022-12-07T07:54:22;4.50;99.90
23156;DHT22;11746;50.876;4.246;2022-12-07T07:56:48;4.60;99.90
23156;DHT22;11746;50.876;4.246;2022-12-07T07:59:15;4.60;99.90
23156;DHT22;11746;50.876;4.246;2022-12-07T08:01:41;4.60;99.90
23156;DHT22;11746;50.876;4.246;2022-12-07T08:04:09;4.50;99.90
23156;DHT22;11746;50.876;4.246;2022-12-07T08:06:35;4.50;99.90
23156;DHT22;11746;50.876;4.246;2022-12-07T08:09:01;4.50;99.90
23156;DHT22;11746;50.876;4.246;2022-12-07T08:11:27;4.50;99.90
23156;DHT22;11746;50.876;4.246;2022-12-07T08:13:53;4.40;99.90
23156;DHT22;11746;50.876;4.246;2022-12-07T08:16:21;4.50;99.90
23156;DHT22;11746;50.876;4.246;2022-12-07T08:18:47;4.50;99.90
23156;DHT22;11746;50.876;4.246;2022-12-07T08:21:14;4.40;99.90
23156;DHT22;11746;50.876;4.246;2022-12-07T08:23:40;4.30;99.90
23156;DHT22;11746;50.876;4.246;2022-12-07T08:26:08;4.30;99.90
23156;DHT22;11746;50.876;4.246;2022-12-07T08:28:34;4.30;99.90
23156;DHT22;11746;50.876;4.246;2022-12-07T08:31:11;4.30;99.90
23156;DHT22;11746;50.876;4.246;2022-12-07T08:33:38;4.30;99.90
23156;DHT22;11746;50.876;4.246;2022-12-07T08:36:08;4.50;99.90
23156;DHT22;11746;50.876;4.246;2022-12-07T08:38:35;4.70;99.90
23156;DHT22;11746;50.876;4.246;2022-12-07T08:41:02;5.00;99.90
23156;DHT22;11746;50.876;4.246;2022-12-07T08:43:28;5.10;99.90
23156;DHT22;11746;50.876;4.246;2022-12-07T08:48:28;5.00;99.90
23156;DHT22;11746;50.876;4.246;2022-12-07T08:50:54;5.00;99.90
23156;DHT22;11746;50.876;4.246;2022-12-07T08:53:20;5.10;99.90
23156;DHT22;11746;50.876;4.246;2022-12-07T08:55:48;5.10;99.90
23156;DHT22;11746;50.876;4.246;2022-12-07T08:58:17;5.10;99.90
23156;DHT22;11746;50.876;4.246;2022-12-07T09:00:43;5.00;99.90
23156;DHT22;11746;50.876;4.246;2022-12-07T09:03:09;5.10;99.90
23156;DHT22;11746;50.876;4.246;2022-12-07T09:05:38;5.10;99.90
23156;DHT22;11746;50.876;4.246;2022-12-07T09:08:07;5.20;99.90
23156;DHT22;11746;50.876;4.246;2022-12-07T09:10:37;5.40;99.90
23156;DHT22;11746;50.876;4.246;2022-12-07T09:13:02;5.40;99.90
23156;DHT22;11746;50.876;4.246;2022-12-07T09:15:29;5.40;99.90
23156;DHT22;11746;50.876;4.246;2022-12-07T09:17:56;5.30;99.90
23156;DHT22;11746;50.876;4.246;2022-12-07T09:20:21;5.10;99.90
23156;DHT22;11746;50.876;4.246;2022-12-07T09:22:47;5.10;99.90
23156;DHT22;11746;50.876;4.246;2022-12-07T09:25:13;5.20;99.90
23156;DHT22;11746;50.876;4.246;2022-12-07T09:27:39;5.30;99.90
23156;DHT22;11746;50.876;4.246;2022-12-07T09:30:06;5.30;99.90
23156;DHT22;11746;50.876;4.246;2022-12-07T09:35:07;5.50;99.90
23156;DHT22;11746;50.876;4.246;2022-12-07T09:37:34;5.50;99.90
23156;DHT22;11746;50.876;4.246;2022-12-07T09:40:02;5.50;99.90
23156;DHT22;11746;50.876;4.246;2022-12-07T09:42:38;5.40;99.90
23156;DHT22;11746;50.876;4.246;2022-12-07T09:45:21;5.40;99.90
23156;DHT22;11746;50.876;4.246;2022-12-07T09:47:47;5.40;99.90
23156;DHT22;11746;50.876;4.246;2022-12-07T09:50:16;5.50;99.90
23156;DHT22;11746;50.876;4.246;2022-12-07T09:52:45;5.40;99.90
23156;DHT22;11746;50.876;4.246;2022-12-07T09:55:19;5.40;99.90
23156;DHT22;11746;50.876;4.246;2022-12-07T09:57:48;5.40;99.90
23156;DHT22;11746;50.876;4.246;2022-12-07T10:00:18;5.40;99.90
23156;DHT22;11746;50.876;4.246;2022-12-07T10:02:58;5.50;99.90
23156;DHT22;11746;50.876;4.246;2022-12-07T10:05:28;5.40;99.90
23156;DHT22;11746;50.876;4.246;2022-12-07T10:07:56;5.50;99.90
23156;DHT22;11746;50.876;4.246;2022-12-07T10:10:32;5.60;99.90
23156;DHT22;11746;50.876;4.246;2022-12-07T10:13:15;5.60;99.90
23156;DHT22;11746;50.876;4.246;2022-12-07T10:15:42;5.60;99.90
23156;DHT22;11746;50.876;4.246;2022-12-07T10:21:01;5.70;99.90
23156;DHT22;11746;50.876;4.246;2022-12-07T10:23:30;5.70;99.90
23156;DHT22;11746;50.876;4.246;2022-12-07T10:25:55;5.90;99.90
23156;DHT22;11746;50.876;4.246;2022-12-07T10:28:27;6.00;99.90
23156;DHT22;11746;50.876;4.246;2022-12-07T10:31:05;6.10;99.90
23156;DHT22;11746;50.876;4.246;2022-12-07T10:33:54;6.10;99.90
23156;DHT22;11746;50.876;4.246;2022-12-07T10:36:39;6.00;99.90
23156;DHT22;11746;50.876;4.246;2022-12-07T10:39:14;6.00;99.90
23156;DHT22;11746;50.876;4.246;2022-12-07T10:42:02;6.10;99.90
23156;DHT22;11746;50.876;4.246;2022-12-07T10:44:33;6.10;99.90
23156;DHT22;11746;50.876;4.246;2022-12-07T10:53:14;6.00;99.90
23156;DHT22;11746;50.876;4.246;2022-12-07T10:55:52;6.10;99.90
23156;DHT22;11746;50.876;4.246;2022-12-07T10:58:45;6.10;99.90
23156;DHT22;11746;50.876;4.246;2022-12-07T11:04:04;6.30;99.90
23156;DHT22;11746;50.876;4.246;2022-12-07T11:06:54;6.30;99.90
23156;DHT22;11746;50.876;4.246;2022-12-07T11:15:11;6.30;99.90
23156;DHT22;11746;50.876;4.246;2022-12-07T11:20:47;6.20;99.90
23156;DHT22;11746;50.876;4.246;2022-12-07T11:32:19;6.10;99.90
23156;DHT22;11746;50.876;4.246;2022-12-07T11:35:03;6.20;99.90
23156;DHT22;11746;50.876;4.246;2022-12-07T11:37:34;6.30;99.90
23156;DHT22;11746;50.876;4.246;2022-12-07T11:42:46;6.50;99.90
23156;DHT22;11746;50.876;4.246;2022-12-07T11:45:34;6.50;99.90
23156;DHT22;11746;50.876;4.246;2022-12-07T11:50:59;6.80;99.90
23156;DHT22;11746;50.876;4.246;2022-12-07T11:53:50;6.90;99.90
23156;DHT22;11746;50.876;4.246;2022-12-07T11:56:22;7.10;99.90
23156;DHT22;11746;50.876;4.246;2022-12-07T11:59:01;7.20;99.90
23156;DHT22;11746;50.876;4.246;2022-12-07T12:06:44;7.20;99.90
23156;DHT22;11746;50.876;4.246;2022-12-07T12:09:33;6.90;99.90
23156;DHT22;11746;50.876;4.246;2022-12-07T12:17:56;6.70;99.90
23156;DHT22;11746;50.876;4.246;2022-12-07T12:23:39;6.90;99.90
23156;DHT22;11746;50.876;4.246;2022-12-07T12:26:19;7.20;99.90
23156;DHT22;11746;50.876;4.246;2022-12-07T12:29:06;7.40;99.90
23156;DHT22;11746;50.876;4.246;2022-12-07T12:31:47;7.50;99.90
23156;DHT22;11746;50.876;4.246;2022-12-07T12:34:37;7.30;99.90
23156;DHT22;11746;50.876;4.246;2022-12-07T12:42:53;7.10;99.90
23156;DHT22;11746;50.876;4.246;2022-12-07T12:45:28;7.10;99.90
23156;DHT22;11746;50.876;4.246;2022-12-07T12:48:01;7.30;99.90
23156;DHT22;11746;50.876;4.246;2022-12-07T12:50:38;7.40;99.90
23156;DHT22;11746;50.876;4.246;2022-12-07T12:58:38;7.60;99.90
23156;DHT22;11746;50.876;4.246;2022-12-07T13:01:36;7.80;99.90
23156;DHT22;11746;50.876;4.246;2022-12-07T13:07:11;7.90;99.90
23156;DHT22;11746;50.876;4.246;2022-12-07T13:09:42;7.90;99.90
23156;DHT22;11746;50.876;4.246;2022-12-07T13:12:15;7.80;99.90
23156;DHT22;11746;50.876;4.246;2022-12-07T13:14:57;7.60;99.90
23156;DHT22;11746;50.876;4.246;2022-12-07T13:19:59;7.60;99.90
23156;DHT22;11746;50.876;4.246;2022-12-07T13:30:46;7.10;99.90
23156;DHT22;11746;50.876;4.246;2022-12-07T13:33:14;7.10;99.90
23156;DHT22;11746;50.876;4.246;2022-12-07T13:35:43;7.10;99.90
23156;DHT22;11746;50.876;4.246;2022-12-07T13:38:25;7.30;99.90
23156;DHT22;11746;50.876;4.246;2022-12-07T13:43:27;7.40;99.90
23156;DHT22;11746;50.876;4.246;2022-12-07T13:45:57;7.50;99.90
23156;DHT22;11746;50.876;4.246;2022-12-07T13:48:46;7.40;99.90
23156;DHT22;11746;50.876;4.246;2022-12-07T13:51:22;7.40;99.90
23156;DHT22;11746;50.876;4.246;2022-12-07T13:53:51;7.30;99.90
23156;DHT22;11746;50.876;4.246;2022-12-07T13:56:17;7.30;99.90
23156;DHT22;11746;50.876;4.246;2022-12-07T13:58:43;7.20;99.90
23156;DHT22;11746;50.876;4.246;2022-12-07T14:01:10;7.00;99.90
23156;DHT22;11746;50.876;4.246;2022-12-07T14:03:38;7.10;99.90
23156;DHT22;11746;50.876;4.246;2022-12-07T14:08:31;7.10;99.90
23156;DHT22;11746;50.876;4.246;2022-12-07T14:10:58;7.00;99.90
23156;DHT22;11746;50.876;4.246;2022-12-07T14:13:34;6.90;99.90
23156;DHT22;11746;50.876;4.246;2022-12-07T14:16:02;6.90;99.90
23156;DHT22;11746;50.876;4.246;2022-12-07T14:18:30;6.90;99.90
23156;DHT22;11746;50.876;4.246;2022-12-07T14:21:16;6.70;99.90
23156;DHT22;11746;50.876;4.246;2022-12-07T14:23:43;6.60;99.90
23156;DHT22;11746;50.876;4.246;2022-12-07T14:26:19;6.40;99.90
23156;DHT22;11746;50.876;4.246;2022-12-07T14:28:45;6.40;99.90
23156;DHT22;11746;50.876;4.246;2022-12-07T14:31:14;6.20;99.90
23156;DHT22;11746;50.876;4.246;2022-12-07T14:33:40;6.20;99.90
23156;DHT22;11746;50.876;4.246;2022-12-07T14:36:09;6.20;99.90
23156;DHT22;11746;50.876;4.246;2022-12-07T14:38:36;6.10;99.90
23156;DHT22;11746;50.876;4.246;2022-12-07T14:41:10;6.00;99.90
23156;DHT22;11746;50.876;4.246;2022-12-07T14:43:56;6.00;99.90
23156;DHT22;11746;50.876;4.246;2022-12-07T14:46:22;6.10;99.90
23156;DHT22;11746;50.876;4.246;2022-12-07T14:48:48;6.10;99.90
23156;DHT22;11746;50.876;4.246;2022-12-07T14:51:14;6.20;99.90
23156;DHT22;11746;50.876;4.246;2022-12-07T14:53:42;6.20;99.90
23156;DHT22;11746;50.876;4.246;2022-12-07T14:56:12;6.20;99.90
23156;DHT22;11746;50.876;4.246;2022-12-07T14:58:40;6.30;99.90
23156;DHT22;11746;50.876;4.246;2022-12-07T15:01:09;6.20;99.90
23156;DHT22;11746;50.876;4.246;2022-12-07T15:03:34;6.20;99.90
23156;DHT22;11746;50.876;4.246;2022-12-07T15:06:04;6.20;99.90
23156;DHT22;11746;50.876;4.246;2022-12-07T15:08:30;6.20;99.90
23156;DHT22;11746;50.876;4.246;2022-12-07T15:10:55;6.20;99.90
23156;DHT22;11746;50.876;4.246;2022-12-07T15:13:21;6.30;99.90
23156;DHT22;11746;50.876;4.246;2022-12-07T15:16:10;6.20;99.90
23156;DHT22;11746;50.876;4.246;2022-12-07T15:18:36;6.30;99.90
23156;DHT22;11746;50.876;4.246;2022-12-07T15:21:02;6.20;99.90
23156;DHT22;11746;50.876;4.246;2022-12-07T15:23:28;6.30;99.90
23156;DHT22;11746;50.876;4.246;2022-12-07T15:25:53;6.30;99.90
23156;DHT22;11746;50.876;4.246;2022-12-07T15:28:19;6.40;99.90
23156;DHT22;11746;50.876;4.246;2022-12-07T15:30:45;6.40;99.90
23156;DHT22;11746;50.876;4.246;2022-12-07T15:33:14;6.30;99.90
23156;DHT22;11746;50.876;4.246;2022-12-07T15:35:42;6.20;99.90
23156;DHT22;11746;50.876;4.246;2022-12-07T15:38:10;6.00;99.90
23156;DHT22;11746;50.876;4.246;2022-12-07T15:40:37;5.90;99.90
23156;DHT22;11746;50.876;4.246;2022-12-07T15:43:03;5.90;99.90
23156;DHT22;11746;50.876;4.246;2022-12-07T15:45:30;5.90;99.90
23156;DHT22;11746;50.876;4.246;2022-12-07T15:47:56;5.80;99.90
23156;DHT22;11746;50.876;4.246;2022-12-07T15:50:22;5.90;99.90
23156;DHT22;11746;50.876;4.246;2022-12-07T15:52:51;5.90;99.90
23156;DHT22;11746;50.876;4.246;2022-12-07T15:55:17;6.00;99.90
23156;DHT22;11746;50.876;4.246;2022-12-07T15:57:46;5.90;99.90
23156;DHT22;11746;50.876;4.246;2022-12-07T16:00:12;5.90;99.90
23156;DHT22;11746;50.876;4.246;2022-12-07T16:02:39;5.90;99.90
23156;DHT22;11746;50.876;4.246;2022-12-07T16:05:05;6.00;99.90
23156;DHT22;11746;50.876;4.246;2022-12-07T16:07:31;6.00;99.90
23156;DHT22;11746;50.876;4.246;2022-12-07T16:09:57;6.00;99.90
23156;DHT22;11746;50.876;4.246;2022-12-07T16:12:23;6.10;99.90
23156;DHT22;11746;50.876;4.246;2022-12-07T16:14:50;6.10;99.90
23156;DHT22;11746;50.876;4.246;2022-12-07T16:17:16;6.00;99.90
23156;DHT22;11746;50.876;4.246;2022-12-07T16:19:42;6.00;99.90
23156;DHT22;11746;50.876;4.246;2022-12-07T16:22:07;6.00;99.90
23156;DHT22;11746;50.876;4.246;2022-12-07T16:24:36;6.00;99.90
23156;DHT22;11746;50.876;4.246;2022-12-07T16:27:02;6.00;99.90
23156;DHT22;11746;50.876;4.246;2022-12-07T16:29:28;6.00;99.90
23156;DHT22;11746;50.876;4.246;2022-12-07T16:31:56;6.00;99.90
23156;DHT22;11746;50.876;4.246;2022-12-07T16:34:22;6.10;99.90
23156;DHT22;11746;50.876;4.246;2022-12-07T16:36:52;6.10;99.90
23156;DHT22;11746;50.876;4.246;2022-12-07T16:39:23;6.00;99.90
23156;DHT22;11746;50.876;4.246;2022-12-07T16:41:49;6.10;99.90
23156;DHT22;11746;50.876;4.246;2022-12-07T16:44:18;6.10;99.90
23156;DHT22;11746;50.876;4.246;2022-12-07T16:46:44;6.10;99.90
23156;DHT22;11746;50.876;4.246;2022-12-07T16:49:14;6.00;99.90
23156;DHT22;11746;50.876;4.246;2022-12-07T16:51:41;6.10;99.90
23156;DHT22;11746;50.876;4.246;2022-12-07T16:54:12;6.10;99.90
23156;DHT22;11746;50.876;4.246;2022-12-07T16:56:38;6.00;99.90
23156;DHT22;11746;50.876;4.246;2022-12-07T16:59:09;6.00;99.90
23156;DHT22;11746;50.876;4.246;2022-12-07T17:01:35;6.00;99.90
23156;DHT22;11746;50.876;4.246;2022-12-07T17:04:02;6.00;99.90
23156;DHT22;11746;50.876;4.246;2022-12-07T17:06:29;5.80;99.90
23156;DHT22;11746;50.876;4.246;2022-12-07T17:08:56;5.90;99.90
23156;DHT22;11746;50.876;4.246;2022-12-07T17:11:26;5.90;99.90
23156;DHT22;11746;50.876;4.246;2022-12-07T17:13:53;5.90;99.90
23156;DHT22;11746;50.876;4.246;2022-12-07T17:16:37;5.80;99.90
23156;DHT22;11746;50.876;4.246;2022-12-07T17:19:09;5.70;99.90
23156;DHT22;11746;50.876;4.246;2022-12-07T17:21:35;5.80;99.90
23156;DHT22;11746;50.876;4.246;2022-12-07T17:24:06;5.80;99.90
23156;DHT22;11746;50.876;4.246;2022-12-07T17:26:32;5.80;99.90
23156;DHT22;11746;50.876;4.246;2022-12-07T17:29:02;5.80;99.90
23156;DHT22;11746;50.876;4.246;2022-12-07T17:31:28;5.80;99.90
23156;DHT22;11746;50.876;4.246;2022-12-07T17:33:56;5.80;99.90
23156;DHT22;11746;50.876;4.246;2022-12-07T17:36:25;5.80;99.90
23156;DHT22;11746;50.876;4.246;2022-12-07T17:38:51;5.70;99.90
23156;DHT22;11746;50.876;4.246;2022-12-07T17:41:21;5.70;99.90
23156;DHT22;11746;50.876;4.246;2022-12-07T17:44:10;5.80;99.90
23156;DHT22;11746;50.876;4.246;2022-12-07T17:46:37;5.80;99.90
23156;DHT22;11746;50.876;4.246;2022-12-07T17:49:05;5.80;99.90
23156;DHT22;11746;50.876;4.246;2022-12-07T17:51:31;5.70;99.90
23156;DHT22;11746;50.876;4.246;2022-12-07T17:54:18;5.60;99.90
23156;DHT22;11746;50.876;4.246;2022-12-07T17:56:45;5.70;99.90
23156;DHT22;11746;50.876;4.246;2022-12-07T17:59:11;5.60;99.90